Map

Track Data

SID SEASON NUMBER BASIN SUBBASIN NAME ISO_TIME NATURE LAT LON WMO_WIND WMO_PRES WMO_AGENCY TRACK_TYPE DIST2LAND LANDFALL IFLAG USA_AGENCY USA_ATCF_ID USA_LAT USA_LON USA_RECORD USA_STATUS USA_WIND USA_PRES USA_SSHS USA_R34_NE USA_R34_SE USA_R34_SW USA_R34_NW USA_R50_NE USA_R50_SE USA_R50_SW USA_R50_NW USA_R64_NE USA_R64_SE USA_R64_SW USA_R64_NW USA_POCI USA_ROCI USA_RMW USA_EYE TOKYO_LAT TOKYO_LON TOKYO_GRADE TOKYO_WIND TOKYO_PRES TOKYO_R50_DIR TOKYO_R50_LONG TOKYO_R50_SHORT TOKYO_R30_DIR TOKYO_R30_LONG TOKYO_R30_SHORT TOKYO_LAND CMA_LAT CMA_LON CMA_CAT CMA_WIND CMA_PRES HKO_LAT HKO_LON HKO_CAT HKO_WIND HKO_PRES NEWDELHI_LAT NEWDELHI_LON NEWDELHI_GRADE NEWDELHI_WIND NEWDELHI_PRES NEWDELHI_CI NEWDELHI_DP NEWDELHI_POCI REUNION_LAT REUNION_LON REUNION_TYPE REUNION_WIND REUNION_PRES REUNION_TNUM REUNION_CI REUNION_RMW REUNION_R34_NE REUNION_R34_SE REUNION_R34_SW REUNION_R34_NW REUNION_R50_NE REUNION_R50_SE REUNION_R50_SW REUNION_R50_NW REUNION_R64_NE REUNION_R64_SE REUNION_R64_SW REUNION_R64_NW BOM_LAT BOM_LON BOM_TYPE BOM_WIND BOM_PRES BOM_TNUM BOM_CI BOM_RMW BOM_R34_NE BOM_R34_SE BOM_R34_SW BOM_R34_NW BOM_R50_NE BOM_R50_SE BOM_R50_SW BOM_R50_NW BOM_R64_NE BOM_R64_SE BOM_R64_SW BOM_R64_NW BOM_ROCI BOM_POCI BOM_EYE BOM_POS_METHOD BOM_PRES_METHOD NADI_LAT NADI_LON NADI_CAT NADI_WIND NADI_PRES WELLINGTON_LAT WELLINGTON_LON WELLINGTON_WIND WELLINGTON_PRES DS824_LAT DS824_LON DS824_STAGE DS824_WIND DS824_PRES TD9636_LAT TD9636_LON TD9636_STAGE TD9636_WIND TD9636_PRES TD9635_LAT TD9635_LON TD9635_WIND TD9635_PRES TD9635_ROCI NEUMANN_LAT NEUMANN_LON NEUMANN_CLASS NEUMANN_WIND NEUMANN_PRES MLC_LAT MLC_LON MLC_CLASS MLC_WIND MLC_PRES USA_GUST BOM_GUST BOM_GUST_PER REUNION_GUST REUNION_GUST_PER USA_SEAHGT USA_SEARAD_NE USA_SEARAD_SE USA_SEARAD_SW USA_SEARAD_NW STORM_SPEED STORM_DIR
1898151N11059 1898 13 NI AS NOT_NAMED 1898-05-31 00:00:00 TS 11.3000 59.4000 main 552 539 _________O____ -1 11.3000 59.4000 TC 64 3 335
1898151N11059 1898 13 NI AS NOT_NAMED 1898-05-31 03:00:00 TS 11.4517 59.3333 main 536 521 _________PO___ -1 11.5275 59.3000 TC 64 11.3000 59.4000 4 5 340
1898151N11059 1898 13 NI AS NOT_NAMED 1898-05-31 06:00:00 TS 11.7294 59.2395 main 521 504 _________OP___ -1 11.8000 59.2000 TC 64 11.6234 59.2988 4 6 343
1898151N11059 1898 13 NI AS NOT_NAMED 1898-05-31 09:00:00 TS 12.0546 59.1420 main 503 500 _________PP___ -1 12.1425 59.1000 TC 64 11.9375 59.1979 4 7 344
1898151N11059 1898 13 NI AS NOT_NAMED 1898-05-31 12:00:00 TS 12.3664 59.0490 main 489 488 _________OP___ -1 12.5000 59.0000 TC 64 12.2328 59.0981 4 6 343
1898151N11059 1898 13 NI AS NOT_NAMED 1898-05-31 15:00:00 TS 12.6537 58.9500 main 477 477 _________PO___ -1 12.8075 58.9000 TC 64 12.5000 59.0000 4 6 341
1898151N11059 1898 13 NI AS NOT_NAMED 1898-05-31 18:00:00 TS 12.9196 58.8519 main 478 467 _________OP___ -1 13.1000 58.8000 TC 64 12.7391 58.9037 4 6 340
1898151N11059 1898 13 NI AS NOT_NAMED 1898-05-31 21:00:00 TS 13.1675 58.7572 main 471 460 _________PP___ -1 13.3475 58.7073 TC 64 12.9876 58.8070 4 6 342
1898151N11059 1898 13 NI AS NOT_NAMED 1898-06-01 00:00:00 TS 13.4961 58.6534 main 466 455 _________OP___ -1 13.7000 58.6000 TC 64 13.2922 58.7067 4 9 345
1898151N11059 1898 13 NI AS NOT_NAMED 1898-06-01 03:00:00 TS 13.9950 58.5250 main 460 426 _________PO___ -1 14.2900 58.4501 TC 64 13.7000 58.6000 4 12 348
1898151N11059 1898 13 NI AS NOT_NAMED 1898-06-01 06:00:00 TS 14.6762 58.3853 main 416 345 _________OP___ -1 15.0000 58.3000 TC 64 14.3525 58.4707 4 15 350
1898151N11059 1898 13 NI AS NOT_NAMED 1898-06-01 09:00:00 TS 15.4350 58.2605 main 345 277 _________PP___ -1 15.7750 58.1850 TC 64 15.0951 58.3359 4 15 351
1898151N11059 1898 13 NI AS NOT_NAMED 1898-06-01 12:00:00 TS 16.1076 58.1541 main 277 238 _________OP___ -1 16.4000 58.1000 TC 64 15.8151 58.2082 4 11 350
1898151N11059 1898 13 NI AS NOT_NAMED 1898-06-01 15:00:00 TS 16.5162 58.0712 main 238 215 _________PO___ -1 16.6325 58.0424 TC 64 16.4000 58.1000 4 6 346
1898151N11059 1898 13 NI AS NOT_NAMED 1898-06-01 18:00:00 TS 16.6740 58.0139 main 215 207 _________OP___ -1 16.7000 58.0000 TC 64 16.6480 58.0278 4 3 339
1898151N11059 1898 13 NI AS NOT_NAMED 1898-06-01 21:00:00 TS 16.7824 57.9634 main 207 192 _________PP___ -1 16.8050 57.9500 TC 64 16.7598 57.9768 4 3 340
1898151N11059 1898 13 NI AS NOT_NAMED 1898-06-02 00:00:00 TS 16.9209 57.9187 main 192 170 _________OP___ -1 17.0000 57.9000 TC 64 16.8418 57.9373 4 4 348
1898151N11059 1898 13 NI AS NOT_NAMED 1898-06-02 03:00:00 TS 17.1988 57.8750 main 170 138 _________PO___ -1 17.3975 57.8500 TC 55 17.0000 57.9000 4 7 352
1898151N11059 1898 13 NI AS NOT_NAMED 1898-06-02 06:00:00 TS 17.6226 57.8210 main 138 111 _________OP___ -1 17.9000 57.8000 TC 47 17.3451 57.8420 4 9 353
1898151N11059 1898 13 NI AS NOT_NAMED 1898-06-02 09:00:00 TS 18.0739 57.7639 main 100 44 _________PP___ -1 18.3625 57.7425 TC 38 17.7852 57.7853 4 10 354
1898151N11059 1898 13 NI AS NOT_NAMED 1898-06-02 12:00:00 TS 18.6038 57.7179 main 44 0 _________OP___ -1 18.9000 57.7000 TC 30 18.3076 57.7358 4 12 357
1898151N11059 1898 13 NI AS NOT_NAMED 1898-06-02 15:00:00 TS 19.2350 57.6962 main 0 0 _________PO___ -1 19.5700 57.6924 TC 30 18.9000 57.7000 1 13 360
1898151N11059 1898 13 NI AS NOT_NAMED 1898-06-02 18:00:00 TS 19.9420 57.6907 main 0 0 _________OP___ -1 20.3000 57.7000 TC 30 19.5840 57.6814 1 15 359
1898151N11059 1898 13 NI AS NOT_NAMED 1898-06-02 21:00:00 TS 20.6837 57.6887 main 0 0 _________PP___ -1 21.0450 57.7000 TC 30 20.3225 57.6774 1 14 1
1898151N11059 1898 13 NI AS NOT_NAMED 1898-06-03 00:00:00 TS 21.3749 57.6923 main 0 0 _________OP___ -1 21.7000 57.7000 TC 30 21.0497 57.6846 1 12 0
1898151N11059 1898 13 NI AS NOT_NAMED 1898-06-03 03:00:00 TS 21.9225 57.6963 main 0 0 _________PO___ -1 22.1450 57.6926 TC 38 21.7000 57.7000 1 10 2
1898151N11059 1898 13 NI AS NOT_NAMED 1898-06-03 06:00:00 TS 22.3573 57.7049 main 0 0 _________OP___ -1 22.5000 57.7000 TC 47 22.2145 57.7097 1 9 2
1898151N11059 1898 13 NI AS NOT_NAMED 1898-06-03 09:00:00 TS 22.7824 57.7350 main 0 0 _________PP___ -1 22.9225 57.7424 TC 55 22.6423 57.7276 1 8 5
1898151N11059 1898 13 NI AS NOT_NAMED 1898-06-03 12:00:00 TS 23.1495 57.7783 main 0 0 _________OP___ -1 23.3000 57.8000 TC 64 22.9989 57.7566 1 7 7
1898151N11059 1898 13 NI AS NOT_NAMED 1898-06-03 15:00:00 TS 23.4400 57.8213 main 0 0 _________PO___ -1 23.5800 57.8426 TC 64 23.3000 57.8000 4 5 9
1898151N11059 1898 13 NI AS NOT_NAMED 1898-06-03 18:00:00 TS 23.6629 57.8769 main 0 0 _________OP___ -1 23.8000 57.9000 TC 64 23.5601 57.8596 4 5 16
1898151N11059 1898 13 NI AS NOT_NAMED 1898-06-03 21:00:00 TS 23.8751 57.9553 main 24 24 _________PP___ -1 24.0025 57.9899 TC 64 23.7901 57.9323 4 4 21
1898151N11059 1898 13 NI AS NOT_NAMED 1898-06-04 00:00:00 TS 24.0667 58.0426 main 45 45 _________OP___ -1 24.2000 58.1000 TC 64 24.0001 58.0138 4 4 22
1898151N11059 1898 13 NI AS NOT_NAMED 1898-06-04 03:00:00 NR 24.2000 58.1000 main 59 __________O___ -1 TC 24.2000 58.1000 4 3 21

About IBTrACS Database

This database is a web-friendly format of International Best Track Archive for Climate Stewardship (IBTrACS), a global best track data archive curated by NOAA dating back to 1842.

Updated: 2021-10-21